createdAt,value
2019-02-23T00:00:48.113Z,98510.95
2019-02-23T00:03:17.727Z,98513.77
2019-02-23T00:05:47.481Z,98515.41
2019-02-23T00:08:17.096Z,98520.06
2019-02-23T00:10:46.787Z,98529.36
2019-02-23T00:13:16.415Z,98528.98
2019-02-23T00:15:46.134Z,98529.04
2019-02-23T00:18:15.773Z,98533.36
2019-02-23T00:20:45.417Z,98543.04
2019-02-23T00:23:15.039Z,98542.33
2019-02-23T00:25:44.699Z,98544.59
2019-02-23T00:28:14.323Z,98547.25
2019-02-23T00:30:43.905Z,98549.35
2019-02-23T00:33:13.514Z,98554.08
2019-02-23T00:35:43.131Z,98564.03
2019-02-23T00:38:12.754Z,98562.14
2019-02-23T00:40:42.415Z,98568.80
2019-02-23T00:43:12.006Z,98574.15
2019-02-23T00:45:41.622Z,98586.24
2019-02-23T00:48:11.282Z,98595.57
2019-02-23T00:50:40.899Z,98592.44
2019-02-23T00:53:10.521Z,98592.69
2019-02-23T00:55:40.105Z,98584.92
2019-02-23T00:58:10.276Z,98593.05
2019-02-23T01:00:39.960Z,98596.51
2019-02-23T01:03:09.583Z,98594.28
2019-02-23T01:05:39.174Z,98597.20
2019-02-23T01:08:08.795Z,98599.59
2019-02-23T01:10:38.458Z,98599.36
2019-02-23T01:13:08.145Z,98597.30
2019-02-23T01:15:37.764Z,98605.50
2019-02-23T01:18:07.367Z,98607.05
2019-02-23T01:20:37.760Z,98605.27
2019-02-23T01:23:07.421Z,98604.82
2019-02-23T01:25:37.102Z,98608.44
2019-02-23T01:28:06.758Z,98617.95
2019-02-23T01:30:36.693Z,98625.72
2019-02-23T01:33:06.377Z,98634.58
2019-02-23T01:35:35.968Z,98635.85
2019-02-23T01:38:05.677Z,98631.77
2019-02-23T01:40:35.257Z,98634.53
2019-02-23T01:43:06.461Z,98640.19
2019-02-23T01:45:42.293Z,98646.66
2019-02-23T01:48:07.557Z,98652.64
2019-02-23T01:50:37.145Z,98661.45
2019-02-23T01:53:06.874Z,98656.48
2019-02-23T01:55:36.491Z,98664.23
2019-02-23T01:58:06.732Z,98661.91
2019-02-23T02:00:36.589Z,98662.84
2019-02-23T02:03:06.487Z,98674.95
2019-02-23T02:05:36.111Z,98677.03
2019-02-23T02:08:05.874Z,98678.98
2019-02-23T02:10:35.604Z,98682.98
2019-02-23T02:13:05.422Z,98685.78
2019-02-23T02:15:35.207Z,98688.66
2019-02-23T02:18:04.876Z,98691.91
2019-02-23T02:20:34.495Z,98699.14
2019-02-23T02:23:04.104Z,98703.63
2019-02-23T02:25:33.722Z,98705.00
2019-02-23T02:28:03.423Z,98704.13
2019-02-23T02:30:33.015Z,98704.14
2019-02-23T02:33:02.619Z,98710.25
2019-02-23T02:35:32.311Z,98713.34
2019-02-23T02:38:01.936Z,98717.60
2019-02-23T02:40:31.537Z,98719.02
2019-02-23T02:43:01.154Z,98719.67
2019-02-23T02:45:31.012Z,98721.92
2019-02-23T02:48:00.623Z,98731.76
2019-02-23T02:50:30.511Z,98737.86
2019-02-23T02:53:00.111Z,98743.08
2019-02-23T02:55:29.813Z,98740.35
2019-02-23T02:57:59.413Z,98736.88
2019-02-23T03:00:29.154Z,98738.51
2019-02-23T03:02:58.772Z,98741.08
2019-02-23T03:05:28.397Z,98739.48
2019-02-23T03:07:58.083Z,98750.20
2019-02-23T03:10:27.699Z,98748.34
2019-02-23T03:12:57.325Z,98759.31
2019-02-23T03:15:26.925Z,98768.90
2019-02-23T03:17:56.561Z,98764.92
2019-02-23T03:20:36.224Z,98761.67
2019-02-23T03:22:57.479Z,98764.34
2019-02-23T03:25:27.104Z,98766.28
2019-02-23T03:27:56.698Z,98775.98
2019-02-23T03:30:26.328Z,98783.27
2019-02-23T03:32:55.935Z,98784.59
2019-02-23T03:35:25.541Z,98780.72
2019-02-23T03:37:55.217Z,98782.33
2019-02-23T03:40:24.917Z,98784.81
2019-02-23T03:42:54.621Z,98800.23
2019-02-23T03:45:24.212Z,98800.00
2019-02-23T03:47:53.909Z,98800.88
2019-02-23T03:50:23.536Z,98801.11
2019-02-23T03:52:53.160Z,98797.19
2019-02-23T03:55:22.759Z,98801.62
2019-02-23T03:57:52.446Z,98804.13
2019-02-23T04:00:22.067Z,98804.43
2019-02-23T04:02:51.694Z,98804.30
2019-02-23T04:05:21.291Z,98816.10
2019-02-23T04:07:50.920Z,98814.48
2019-02-23T04:10:20.548Z,98818.28
2019-02-23T04:12:50.159Z,98817.72
2019-02-23T04:15:19.846Z,98827.87
2019-02-23T04:17:49.476Z,98824.48
2019-02-23T04:20:19.075Z,98836.11
2019-02-23T04:22:48.713Z,98832.91
2019-02-23T04:25:18.341Z,98829.27
2019-02-23T04:27:47.984Z,98824.30
2019-02-23T04:30:17.590Z,98833.48
2019-02-23T04:32:47.214Z,98837.67
2019-02-23T04:35:16.819Z,98830.88
2019-02-23T04:37:46.447Z,98834.30
2019-02-23T04:40:16.043Z,98834.55
2019-02-23T04:42:45.644Z,98833.56
2019-02-23T04:45:15.270Z,98823.59
2019-02-23T04:47:44.887Z,98822.00
2019-02-23T04:50:14.482Z,98824.05
2019-02-23T04:52:44.106Z,98822.23
2019-02-23T04:55:13.781Z,98821.56
2019-02-23T04:57:43.407Z,98822.84
2019-02-23T05:00:15.551Z,98829.94
2019-02-23T05:02:45.172Z,98832.75
2019-02-23T05:05:14.867Z,98827.84
2019-02-23T05:07:44.464Z,98826.64
2019-02-23T05:10:14.155Z,98832.91
2019-02-23T05:12:43.844Z,98849.71
2019-02-23T05:15:13.473Z,98847.31
2019-02-23T05:17:43.073Z,98852.67
2019-02-23T05:20:12.698Z,98855.05
2019-02-23T05:22:42.326Z,98853.77
2019-02-23T05:25:12.160Z,98852.17
2019-02-23T05:27:41.791Z,98858.59
2019-02-23T05:30:13.393Z,98860.45
2019-02-23T05:32:43.085Z,98868.80
2019-02-23T05:35:14.300Z,98867.10
2019-02-23T05:37:43.931Z,98875.20
2019-02-23T05:40:14.164Z,98876.34
2019-02-23T05:42:43.763Z,98885.55
2019-02-23T05:45:13.592Z,98876.64
2019-02-23T05:47:43.220Z,98883.47
2019-02-23T05:50:12.922Z,98880.64
2019-02-23T05:52:42.760Z,98882.59
2019-02-23T05:55:12.452Z,98878.84
2019-02-23T05:57:42.074Z,98875.60
2019-02-23T06:00:14.454Z,98873.73
2019-02-23T06:02:45.083Z,98872.89
2019-02-23T06:05:15.106Z,98875.63
2019-02-23T06:07:44.734Z,98875.33
2019-02-23T06:10:14.333Z,98872.15
2019-02-23T06:12:43.958Z,98886.22
2019-02-23T06:15:14.194Z,98896.78
2019-02-23T06:17:43.824Z,98893.38
2019-02-23T06:20:13.427Z,98905.88
2019-02-23T06:22:43.048Z,98900.34
2019-02-23T06:25:12.658Z,98896.22
2019-02-23T06:27:42.289Z,98900.72
2019-02-23T06:30:14.154Z,98901.48
2019-02-23T06:32:43.754Z,98911.34
2019-02-23T06:35:14.280Z,98909.48
2019-02-23T06:37:43.946Z,98912.73
2019-02-23T06:40:13.565Z,98908.84
2019-02-23T06:42:43.197Z,98907.86
2019-02-23T06:45:15.850Z,98901.44
2019-02-23T06:47:45.449Z,98902.67
2019-02-23T06:50:15.074Z,98898.89
2019-02-23T06:52:44.673Z,98902.28
2019-02-23T06:55:14.308Z,98916.56
2019-02-23T06:57:43.915Z,98915.90
2019-02-23T07:00:17.780Z,98909.34
2019-02-23T07:02:47.381Z,98898.41
2019-02-23T07:05:17.012Z,98900.06
2019-02-23T07:07:46.609Z,98897.14
2019-02-23T07:10:16.404Z,98897.86
2019-02-23T07:12:46.000Z,98900.42
2019-02-23T07:15:15.692Z,98904.66
2019-02-23T07:17:45.300Z,98905.94
2019-02-23T07:20:15.041Z,98905.73
2019-02-23T07:22:44.664Z,98907.54
2019-02-23T07:25:14.253Z,98910.20
2019-02-23T07:27:43.864Z,98907.85
2019-02-23T07:30:14.903Z,98904.76
2019-02-23T07:32:44.861Z,98905.61
2019-02-23T07:35:14.692Z,98908.02
2019-02-23T07:37:44.318Z,98904.14
2019-02-23T07:40:17.918Z,98904.91
2019-02-23T07:42:48.363Z,98900.91
2019-02-23T07:45:17.975Z,98895.88
2019-02-23T07:47:47.607Z,98889.36
2019-02-23T07:50:18.064Z,98886.69
2019-02-23T07:52:47.685Z,98884.09
2019-02-23T07:55:17.276Z,98881.61
2019-02-23T07:57:47.185Z,98886.48
2019-02-23T08:00:17.007Z,98883.47
2019-02-23T08:02:46.589Z,98883.58
2019-02-23T08:05:16.214Z,98875.67
2019-02-23T08:07:45.845Z,98872.95
2019-02-23T08:10:15.644Z,98875.72
2019-02-23T08:12:45.265Z,98871.92
2019-02-23T08:15:15.029Z,98880.40
2019-02-23T08:17:44.613Z,98885.61
2019-02-23T08:20:15.738Z,98885.45
2019-02-23T08:22:45.350Z,98887.30
2019-02-23T08:25:16.113Z,98886.53
2019-02-23T08:27:45.733Z,98886.20
2019-02-23T08:30:18.741Z,98885.53
2019-02-23T08:32:48.367Z,98886.39
2019-02-23T08:35:17.951Z,98882.14
2019-02-23T08:37:47.572Z,98881.00
2019-02-23T08:40:18.403Z,98883.20
2019-02-23T08:42:48.028Z,98875.38
2019-02-23T08:45:18.078Z,98869.52
2019-02-23T08:47:47.699Z,98874.11
2019-02-23T08:50:17.842Z,98876.86
2019-02-23T08:52:49.524Z,98884.88
2019-02-23T08:55:18.833Z,98880.95
2019-02-23T08:57:48.424Z,98884.75
2019-02-23T09:00:19.247Z,98882.82
2019-02-23T09:02:48.834Z,98882.31
2019-02-23T09:05:18.469Z,98881.70
2019-02-23T09:07:48.045Z,98886.48
2019-02-23T09:10:18.231Z,98891.61
2019-02-23T09:12:47.903Z,98891.68
2019-02-23T09:15:17.588Z,98896.03
2019-02-23T09:17:47.179Z,98894.41
2019-02-23T09:20:16.786Z,98895.87
2019-02-23T09:22:46.403Z,98889.13
2019-02-23T09:25:16.017Z,98889.70
2019-02-23T09:27:45.635Z,98893.50
2019-02-23T09:30:15.923Z,98890.08
2019-02-23T09:32:45.506Z,98885.09
2019-02-23T09:35:15.161Z,98886.78
2019-02-23T09:37:44.792Z,98887.08
2019-02-23T09:40:19.784Z,98880.47
2019-02-23T09:42:49.569Z,98883.95
2019-02-23T09:45:19.155Z,98882.92
2019-02-23T09:47:49.026Z,98887.47
2019-02-23T09:50:18.609Z,98889.55
2019-02-23T09:52:48.224Z,98887.14
2019-02-23T09:55:17.839Z,98882.93
2019-02-23T09:57:47.437Z,98885.55
2019-02-23T10:00:17.136Z,98891.05
2019-02-23T10:02:46.715Z,98884.81
2019-02-23T10:05:16.328Z,98878.52
2019-02-23T10:07:45.916Z,98871.80
2019-02-23T10:10:15.739Z,98875.09
2019-02-23T10:12:45.340Z,98873.55
2019-02-23T10:15:15.096Z,98868.20
2019-02-23T10:17:44.714Z,98858.37
2019-02-23T10:20:34.065Z,98851.31
2019-02-23T10:23:03.690Z,98849.30
2019-02-23T10:25:33.279Z,98854.59
2019-02-23T10:28:02.897Z,98841.13
2019-02-23T10:30:32.555Z,98836.51
2019-02-23T10:33:02.181Z,98830.23
2019-02-23T10:35:31.870Z,98832.98
2019-02-23T10:38:01.461Z,98818.11
2019-02-23T10:40:31.548Z,98813.53
2019-02-23T10:43:01.138Z,98815.40
2019-02-23T10:45:30.750Z,98819.43
2019-02-23T10:48:00.338Z,98809.66
2019-02-23T10:50:29.954Z,98811.13
2019-02-23T10:52:59.546Z,98817.69
2019-02-23T10:55:29.231Z,98814.11
2019-02-23T10:57:58.817Z,98813.11
2019-02-23T11:00:28.978Z,98804.33
2019-02-23T11:02:58.567Z,98788.19
2019-02-23T11:05:28.253Z,98810.77
2019-02-23T11:07:57.912Z,98811.61
2019-02-23T11:10:27.499Z,98799.56
2019-02-23T11:12:57.121Z,98791.84
2019-02-23T11:15:26.737Z,98790.70
2019-02-23T11:17:56.395Z,98793.42
2019-02-23T11:20:26.268Z,98770.46
2019-02-23T11:22:55.854Z,98774.69
2019-02-23T11:25:26.395Z,98769.54
2019-02-23T11:27:56.153Z,98774.01
2019-02-23T11:30:25.876Z,98769.84
2019-02-23T11:32:55.489Z,98777.99
2019-02-23T11:35:25.151Z,98782.41
2019-02-23T11:37:54.763Z,98781.75
2019-02-23T11:40:24.351Z,98775.70
2019-02-23T11:42:53.973Z,98773.67
2019-02-23T11:45:23.563Z,98776.09
2019-02-23T11:47:53.619Z,98769.22
2019-02-23T11:50:23.305Z,98763.39
2019-02-23T11:52:52.930Z,98757.35
2019-02-23T11:55:22.522Z,98763.51
2019-02-23T11:57:52.109Z,98757.69
2019-02-23T12:00:21.735Z,98755.56
2019-02-23T12:02:52.689Z,98756.76
2019-02-23T12:05:22.577Z,98757.94
2019-02-23T12:07:52.161Z,98744.86
2019-02-23T12:10:21.854Z,98734.13
2019-02-23T12:12:51.441Z,98722.95
2019-02-23T12:15:21.061Z,98721.41
2019-02-23T12:17:50.646Z,98718.22
2019-02-23T12:20:20.273Z,98714.83
2019-02-23T12:22:49.862Z,98717.23
2019-02-23T12:25:19.559Z,98722.63
2019-02-23T12:27:49.143Z,98720.81
2019-02-23T12:30:19.028Z,98732.17
2019-02-23T12:32:48.653Z,98734.55
2019-02-23T12:35:18.245Z,98736.73
2019-02-23T12:37:47.852Z,98723.16
2019-02-23T12:40:17.509Z,98726.06
2019-02-23T12:42:47.116Z,98736.93
2019-02-23T12:45:16.703Z,98741.52
2019-02-23T12:47:46.317Z,98748.55
2019-02-23T12:50:15.980Z,98748.66
2019-02-23T12:52:45.590Z,98749.93
2019-02-23T12:55:15.249Z,98735.97
2019-02-23T12:57:44.863Z,98736.97
2019-02-23T13:00:17.530Z,98731.92
2019-02-23T13:02:47.221Z,98727.98
2019-02-23T13:05:17.056Z,98715.45
2019-02-23T13:07:46.648Z,98715.63
2019-02-23T13:10:16.398Z,98718.96
2019-02-23T13:13:08.119Z,98705.27
2019-02-23T13:16:00.060Z,98699.31
2019-02-23T13:18:37.654Z,98693.41
2019-02-23T13:21:37.981Z,98686.51
2019-02-23T13:24:28.545Z,98680.30
2019-02-23T13:27:09.131Z,98670.03
2019-02-23T13:30:15.039Z,98670.53
2019-02-23T13:33:03.993Z,98678.30
2019-02-23T13:36:00.951Z,98675.19
2019-02-23T13:38:49.534Z,98675.92
2019-02-23T13:41:29.311Z,98682.77
2019-02-23T13:44:30.741Z,98681.53
2019-02-23T13:47:13.603Z,98687.42
2019-02-23T13:50:06.962Z,98683.45
2019-02-23T13:52:55.598Z,98681.81
2019-02-23T13:55:44.590Z,98687.67
2019-02-23T13:58:30.706Z,98683.89
2019-02-23T14:01:23.068Z,98689.30
2019-02-23T14:04:32.024Z,98694.00
2019-02-23T14:07:31.211Z,98695.67
2019-02-23T14:10:27.664Z,98699.34
2019-02-23T14:13:07.509Z,98688.18
2019-02-23T14:16:05.102Z,98688.34
2019-02-23T14:19:01.883Z,98691.80
2019-02-23T14:22:10.453Z,98681.89
2019-02-23T14:24:52.755Z,98681.09
2019-02-23T14:27:35.855Z,98685.83
2019-02-23T14:30:46.766Z,98687.97
2019-02-23T14:33:59.133Z,98689.61
2019-02-23T14:36:54.294Z,98687.86
2019-02-23T14:39:57.055Z,98685.15
2019-02-23T14:42:49.380Z,98682.78
2019-02-23T14:45:35.498Z,98687.30
2019-02-23T14:48:31.608Z,98684.97
2019-02-23T14:51:29.720Z,98691.02
2019-02-23T14:54:24.651Z,98691.03
2019-02-23T14:57:25.901Z,98685.85
2019-02-23T15:00:30.390Z,98688.72
2019-02-23T15:03:32.484Z,98695.00
2019-02-23T15:06:36.788Z,98684.09
2019-02-23T15:09:42.431Z,98678.48
2019-02-23T15:13:01.776Z,98680.81
2019-02-23T15:15:53.909Z,98679.80
2019-02-23T15:22:25.846Z,98678.84
2019-02-23T15:25:13.258Z,98682.45
2019-02-23T15:28:00.017Z,98672.52
2019-02-23T15:30:36.631Z,98673.59
2019-02-23T15:33:19.472Z,98675.13
2019-02-23T15:35:53.698Z,98672.18
2019-02-23T15:38:45.653Z,98684.94
2019-02-23T15:41:39.287Z,98694.86
2019-02-23T15:44:22.378Z,98678.92
2019-02-23T15:47:17.460Z,98687.81
2019-02-23T15:49:47.092Z,98691.20
2019-02-23T15:52:16.689Z,98666.30
2019-02-23T15:54:46.341Z,98671.38
2019-02-23T15:57:16.163Z,98675.23
2019-02-23T15:59:45.786Z,98681.01
2019-02-23T16:02:15.440Z,98691.30
2019-02-23T16:04:45.055Z,98687.80
2019-02-23T16:07:14.641Z,98693.27
2019-02-23T16:09:44.253Z,98711.04
2019-02-23T16:12:14.059Z,98708.30
2019-02-23T16:14:43.686Z,98707.64
2019-02-23T16:17:13.273Z,98712.24
2019-02-23T16:19:42.865Z,98715.17
2019-02-23T16:22:12.568Z,98726.95
2019-02-23T16:24:42.157Z,98722.41
2019-02-23T16:27:12.471Z,98717.62
2019-02-23T16:29:42.079Z,98734.16
2019-02-23T16:32:11.690Z,98747.06
2019-02-23T16:34:41.284Z,98754.09
2019-02-23T16:37:10.904Z,98750.54
2019-02-23T16:39:40.717Z,98741.73
2019-02-23T16:42:10.304Z,98751.58
2019-02-23T16:44:39.897Z,98775.79
2019-02-23T16:47:09.485Z,98756.28
2019-02-23T16:49:39.098Z,98762.88
2019-02-23T16:52:09.336Z,98768.27
2019-02-23T16:54:39.053Z,98780.53
2019-02-23T16:57:08.671Z,98783.30
2019-02-23T16:59:38.286Z,98793.86
2019-02-23T17:02:08.369Z,98784.72
2019-02-23T17:04:38.000Z,98783.56
2019-02-23T17:07:07.612Z,98793.09
2019-02-23T17:09:37.201Z,98799.13
2019-02-23T17:12:06.827Z,98816.81
2019-02-23T17:14:36.432Z,98823.88
2019-02-23T17:17:06.021Z,98820.58
2019-02-23T17:19:35.644Z,98829.07
2019-02-23T17:22:05.261Z,98825.52
2019-02-23T17:24:34.859Z,98833.18
2019-02-23T17:27:04.459Z,98833.69
2019-02-23T17:29:34.051Z,98840.13
2019-02-23T17:32:03.710Z,98841.95
2019-02-23T17:34:33.294Z,98847.28
2019-02-23T17:37:03.027Z,98854.33
2019-02-23T17:39:32.611Z,98867.39
2019-02-23T17:42:03.736Z,98867.87
2019-02-23T17:44:33.346Z,98863.66
2019-02-23T17:47:04.477Z,98866.56
2019-02-23T17:49:34.089Z,98869.84
2019-02-23T17:52:03.698Z,98871.55
2019-02-23T17:54:33.316Z,98875.93
2019-02-23T17:57:02.931Z,98875.09
2019-02-23T17:59:32.550Z,98879.03
2019-02-23T18:02:02.177Z,98884.50
2019-02-23T18:04:32.012Z,98889.28
2019-02-23T18:07:01.626Z,98893.31
2019-02-23T18:09:31.242Z,98891.18
2019-02-23T18:12:00.852Z,98887.03
2019-02-23T18:14:30.439Z,98892.83
2019-02-23T18:17:00.057Z,98891.24
2019-02-23T18:19:29.642Z,98899.64
2019-02-23T18:21:59.284Z,98895.53
2019-02-23T18:24:28.860Z,98887.92
2019-02-23T18:26:58.493Z,98887.22
2019-02-23T18:29:28.089Z,98888.88
2019-02-23T18:31:58.457Z,98885.02
2019-02-23T18:34:28.089Z,98884.15
2019-02-23T18:36:57.755Z,98887.97
2019-02-23T18:39:27.382Z,98893.05
2019-02-23T18:41:56.985Z,98889.63
2019-02-23T18:44:26.624Z,98894.38
2019-02-23T18:46:56.218Z,98894.77
2019-02-23T18:49:25.842Z,98897.63
2019-02-23T18:51:55.473Z,98892.03
2019-02-23T18:54:25.074Z,98902.17
2019-02-23T18:56:54.700Z,98901.66
2019-02-23T18:59:24.296Z,98909.29
2019-02-23T19:01:53.927Z,98906.14
2019-02-23T19:04:23.527Z,98897.96
2019-02-23T19:06:53.153Z,98902.91
2019-02-23T19:09:22.757Z,98902.95
2019-02-23T19:11:52.445Z,98905.34
2019-02-23T19:14:22.369Z,98912.77
2019-02-23T19:16:51.972Z,98909.65
2019-02-23T19:19:21.592Z,98917.03
2019-02-23T19:21:52.056Z,98926.94
2019-02-23T19:24:21.736Z,98929.34
2019-02-23T19:26:51.336Z,98918.52
2019-02-23T19:29:20.935Z,98928.59
2019-02-23T19:31:50.655Z,98929.23
2019-02-23T19:34:20.252Z,98931.03
2019-02-23T19:36:49.853Z,98933.65
2019-02-23T19:39:19.480Z,98934.31
2019-02-23T19:41:49.108Z,98931.78
2019-02-23T19:44:18.738Z,98936.17
2019-02-23T19:46:51.776Z,98940.05
2019-02-23T19:49:21.410Z,98932.94
2019-02-23T19:51:51.009Z,98939.98
2019-02-23T19:54:20.642Z,98934.84
2019-02-23T19:56:50.268Z,98938.77
2019-02-23T19:59:19.897Z,98932.25
2019-02-23T20:01:49.492Z,98928.14
2019-02-23T20:04:19.120Z,98925.13
2019-02-23T20:06:48.718Z,98915.47
2019-02-23T20:09:18.345Z,98915.70
2019-02-23T20:11:48.046Z,98915.19
2019-02-23T20:14:18.506Z,98917.88
2019-02-23T20:16:48.132Z,98912.02
2019-02-23T20:19:19.655Z,98918.36
2019-02-23T20:21:49.089Z,98918.98
2019-02-23T20:24:18.721Z,98918.34
2019-02-23T20:26:55.367Z,98922.10
2019-02-23T20:29:19.666Z,98914.62
2019-02-23T20:31:49.297Z,98916.41
2019-02-23T20:34:18.904Z,98920.03
2019-02-23T20:36:48.599Z,98914.65
2019-02-23T20:39:18.265Z,98912.31
2019-02-23T20:41:47.892Z,98912.59
2019-02-23T20:44:18.162Z,98919.95
2019-02-23T20:46:47.790Z,98927.03
2019-02-23T20:49:17.389Z,98933.09
2019-02-23T20:51:47.013Z,98935.38
2019-02-23T20:54:16.612Z,98930.11
2019-02-23T20:56:46.233Z,98929.97
2019-02-23T20:59:15.833Z,98934.11
2019-02-23T21:01:45.465Z,98947.25
2019-02-23T21:04:15.061Z,98949.34
2019-02-23T21:06:44.686Z,98941.19
2019-02-23T21:09:14.285Z,98943.61
2019-02-23T21:11:43.914Z,98941.33
2019-02-23T21:14:13.581Z,98943.76
2019-02-23T21:16:43.219Z,98945.89
2019-02-23T21:19:12.818Z,98952.36
2019-02-23T21:21:42.417Z,98944.11
2019-02-23T21:24:12.040Z,98945.39
2019-02-23T21:26:41.874Z,98947.84
2019-02-23T21:29:11.473Z,98957.97
2019-02-23T21:31:41.098Z,98952.98
2019-02-23T21:34:12.326Z,98956.01
2019-02-23T21:36:44.062Z,98958.50
2019-02-23T21:39:13.732Z,98951.58
2019-02-23T21:41:43.357Z,98951.54
2019-02-23T21:44:12.956Z,98947.70
2019-02-23T21:46:42.583Z,98938.94
2019-02-23T21:49:12.209Z,98932.03
2019-02-23T21:51:41.834Z,98929.06
2019-02-23T21:54:11.537Z,98933.56
2019-02-23T21:56:41.127Z,98925.30
2019-02-23T21:59:10.749Z,98928.20
2019-02-23T22:01:40.381Z,98934.22
2019-02-23T22:04:09.982Z,98926.67
2019-02-23T22:06:39.627Z,98922.39
2019-02-23T22:09:09.357Z,98922.23
2019-02-23T22:11:38.989Z,98916.02
2019-02-23T22:14:08.594Z,98923.61
2019-02-23T22:16:38.208Z,98917.64
2019-02-23T22:19:07.805Z,98915.03
2019-02-23T22:21:37.434Z,98918.61
2019-02-23T22:24:07.030Z,98922.31
2019-02-23T22:26:36.727Z,98913.11
2019-02-23T22:29:06.353Z,98907.27
2019-02-23T22:31:36.019Z,98908.35
2019-02-23T22:34:05.605Z,98906.91
2019-02-23T22:36:35.203Z,98913.86
2019-02-23T22:39:07.304Z,98918.23
2019-02-23T22:41:36.920Z,98912.50
2019-02-23T22:44:06.546Z,98917.02
2019-02-23T22:46:36.184Z,98909.23
2019-02-23T22:49:05.786Z,98907.49
2019-02-23T22:51:35.391Z,98913.11
2019-02-23T22:54:05.023Z,98901.29
2019-02-23T22:56:34.624Z,98899.81
2019-02-23T22:59:04.252Z,98905.06
2019-02-23T23:01:34.204Z,98902.42
2019-02-23T23:04:03.824Z,98900.81
2019-02-23T23:06:33.424Z,98899.55
2019-02-23T23:09:03.523Z,98909.68
2019-02-23T23:11:33.190Z,98903.59
2019-02-23T23:14:02.817Z,98907.16
2019-02-23T23:16:32.413Z,98908.91
2019-02-23T23:19:03.553Z,98911.80
2019-02-23T23:21:33.152Z,98898.11
2019-02-23T23:24:02.780Z,98898.04
2019-02-23T23:26:32.394Z,98889.73
2019-02-23T23:29:02.020Z,98894.89
2019-02-23T23:31:31.621Z,98895.61
2019-02-23T23:34:01.240Z,98893.95
2019-02-23T23:36:30.858Z,98892.00
2019-02-23T23:39:00.488Z,98895.59
2019-02-23T23:41:30.081Z,98893.14
2019-02-23T23:43:59.708Z,98908.55
2019-02-23T23:46:29.352Z,98909.66
2019-02-23T23:48:58.941Z,98910.23
2019-02-23T23:51:28.612Z,98901.75
2019-02-23T23:53:58.241Z,98887.67
2019-02-23T23:56:27.873Z,98884.52
2019-02-23T23:58:57.505Z,98887.94
